createdAt,value
2018-06-29T00:00:21.330Z,64.87
2018-06-29T00:02:49.744Z,78.63
2018-06-29T00:05:19.269Z,87.93
2018-06-29T00:07:48.222Z,69.97
2018-06-29T00:10:20.946Z,78.33
2018-06-29T00:12:49.437Z,76.23
2018-06-29T00:15:17.827Z,80.50
2018-06-29T00:17:46.565Z,73.33
2018-06-29T00:20:15.094Z,71.30
2018-06-29T00:22:44.079Z,87.33
2018-06-29T00:25:13.965Z,73.80
2018-06-29T00:27:42.818Z,66.70
2018-06-29T00:30:11.786Z,72.40
2018-06-29T00:32:40.635Z,70.20
2018-06-29T00:35:08.727Z,70.30
2018-06-29T00:37:39.252Z,71.37
2018-06-29T00:40:07.344Z,76.27
2018-06-29T00:42:37.067Z,68.60
2018-06-29T00:45:05.433Z,73.70
2018-06-29T00:47:33.599Z,68.77
2018-06-29T00:50:02.536Z,74.53
2018-06-29T00:52:30.900Z,85.70
2018-06-29T00:54:58.949Z,69.80
2018-06-29T00:57:27.009Z,78.80
2018-06-29T00:59:55.111Z,77.43
2018-06-29T01:02:23.132Z,75.10
2018-06-29T01:04:51.322Z,70.23
2018-06-29T01:07:19.671Z,76.80
2018-06-29T01:09:47.998Z,83.00
2018-06-29T01:12:16.397Z,81.73
2018-06-29T01:14:44.732Z,67.90
2018-06-29T01:17:14.097Z,75.20
2018-06-29T01:19:42.680Z,73.47
2018-06-29T01:22:11.487Z,69.63
2018-06-29T01:24:39.564Z,68.90
2018-06-29T01:27:08.112Z,71.90
2018-06-29T01:29:36.426Z,70.00
2018-06-29T01:32:04.602Z,63.97
2018-06-29T01:34:33.478Z,59.57
2018-06-29T01:37:01.504Z,62.00
2018-06-29T01:39:29.530Z,59.90
2018-06-29T01:41:57.543Z,77.37
2018-06-29T01:44:25.567Z,59.80
2018-06-29T01:46:53.529Z,57.90
2018-06-29T01:49:21.665Z,58.73
2018-06-29T01:51:50.597Z,72.13
2018-06-29T01:54:18.684Z,69.90
2018-06-29T01:56:46.992Z,72.90
2018-06-29T01:59:15.439Z,70.63
2018-06-29T02:01:44.619Z,72.03
2018-06-29T02:04:13.361Z,67.37
2018-06-29T02:06:45.848Z,74.50
2018-06-29T02:09:16.776Z,68.63
2018-06-29T02:11:45.338Z,88.67
2018-06-29T02:14:13.685Z,77.40
2018-06-29T02:16:42.117Z,88.90
2018-06-29T02:19:11.640Z,70.13
2018-06-29T02:21:39.646Z,71.47
2018-06-29T02:24:08.016Z,69.30
2018-06-29T02:26:36.161Z,74.40
2018-06-29T02:29:04.510Z,66.93
2018-06-29T02:31:33.020Z,70.20
2018-06-29T02:34:01.018Z,88.87
2018-06-29T02:36:28.984Z,74.13
2018-06-29T02:38:57.006Z,70.17
2018-06-29T02:41:25.002Z,78.67
2018-06-29T02:43:53.008Z,77.97
2018-06-29T02:46:27.664Z,83.60
2018-06-29T02:48:56.507Z,75.90
2018-06-29T02:51:24.522Z,78.43
2018-06-29T02:53:52.585Z,83.43
2018-06-29T02:56:20.730Z,73.33
2018-06-29T02:58:48.974Z,82.23
2018-06-29T03:01:17.217Z,83.23
2018-06-29T03:03:45.702Z,76.50
2018-06-29T03:06:14.351Z,85.70
2018-06-29T03:08:42.620Z,77.90
2018-06-29T03:11:10.937Z,68.67
2018-06-29T03:13:39.079Z,74.80
2018-06-29T03:16:07.190Z,66.63
2018-06-29T03:18:35.859Z,85.90
2018-06-29T03:21:04.156Z,66.67
2018-06-29T03:23:32.275Z,69.93
2018-06-29T03:26:00.430Z,72.70
2018-06-29T03:28:28.426Z,74.50
2018-06-29T03:31:01.972Z,72.50
2018-06-29T03:33:29.979Z,71.20
2018-06-29T03:35:57.997Z,80.10
2018-06-29T03:38:26.093Z,75.87
2018-06-29T03:40:54.340Z,63.30
2018-06-29T03:43:22.301Z,67.43
2018-06-29T03:45:50.826Z,74.50
2018-06-29T03:48:19.061Z,73.73
2018-06-29T03:50:47.344Z,68.03
2018-06-29T03:53:16.511Z,64.43
2018-06-29T03:55:47.127Z,68.80
2018-06-29T03:58:15.909Z,72.50
2018-06-29T04:00:45.262Z,67.67
2018-06-29T04:03:14.871Z,68.07
2018-06-29T04:05:43.526Z,74.27
2018-06-29T04:08:11.684Z,71.03
2018-06-29T04:10:39.896Z,82.30
2018-06-29T04:13:07.968Z,71.30
2018-06-29T04:15:36.251Z,68.67
2018-06-29T04:18:07.598Z,75.23
2018-06-29T04:20:35.874Z,71.17
2018-06-29T04:23:04.334Z,77.70
2018-06-29T04:25:36.311Z,71.07
2018-06-29T04:28:04.927Z,84.80
2018-06-29T04:30:34.139Z,85.43
2018-06-29T04:33:02.216Z,80.17
2018-06-29T04:35:30.484Z,78.57
2018-06-29T04:38:03.878Z,77.63
2018-06-29T04:40:32.112Z,87.77
2018-06-29T04:43:00.853Z,87.17
2018-06-29T04:45:29.177Z,93.07
2018-06-29T04:48:02.340Z,81.73
2018-06-29T04:50:34.106Z,87.93
2018-06-29T04:53:07.491Z,91.33
2018-06-29T04:55:35.515Z,95.60
2018-06-29T04:58:04.017Z,89.40
2018-06-29T05:00:33.419Z,84.30
2018-06-29T05:03:01.689Z,88.00
2018-06-29T05:05:29.804Z,84.07
2018-06-29T05:07:57.947Z,75.10
2018-06-29T05:10:34.217Z,84.27
2018-06-29T05:13:02.385Z,80.70
2018-06-29T05:15:30.614Z,91.33
2018-06-29T05:17:58.625Z,82.57
2018-06-29T05:20:26.983Z,79.77
2018-06-29T05:25:35.591Z,83.63
2018-06-29T05:28:04.958Z,71.57
2018-06-29T05:30:33.165Z,82.17
2018-06-29T05:33:08.115Z,80.27
2018-06-29T05:35:37.970Z,91.00
2018-06-29T05:38:07.855Z,89.97
2018-06-29T05:40:49.878Z,73.07
2018-06-29T05:45:58.782Z,72.77
2018-06-29T05:48:28.052Z,83.07
2018-06-29T05:50:56.585Z,73.50
2018-06-29T05:53:25.099Z,66.70
2018-06-29T05:55:53.636Z,70.27
2018-06-29T05:58:21.568Z,77.77
2018-06-29T06:00:49.792Z,62.97
2018-06-29T06:03:17.835Z,72.10
2018-06-29T06:05:46.151Z,65.40
2018-06-29T06:08:14.426Z,55.57
2018-06-29T06:10:42.573Z,59.33
2018-06-29T06:13:10.514Z,62.03
2018-06-29T06:15:38.524Z,60.03
2018-06-29T06:18:06.609Z,52.93
2018-06-29T06:20:34.615Z,58.77
2018-06-29T06:23:08.236Z,56.07
2018-06-29T06:25:36.188Z,52.60
2018-06-29T06:28:04.243Z,57.93
2018-06-29T06:30:32.153Z,62.20
2018-06-29T06:33:00.978Z,57.23
2018-06-29T06:35:29.005Z,60.73
2018-06-29T06:37:59.143Z,59.10
2018-06-29T06:40:28.785Z,55.40
2018-06-29T06:42:56.777Z,63.43
2018-06-29T06:45:24.829Z,61.97
2018-06-29T06:47:52.865Z,67.30
2018-06-29T06:50:20.924Z,55.90
2018-06-29T06:52:48.941Z,60.90
2018-06-29T06:55:16.990Z,66.50
2018-06-29T06:57:45.018Z,69.93
2018-06-29T07:00:13.260Z,69.90
2018-06-29T07:02:41.298Z,67.37
2018-06-29T07:05:09.241Z,65.40
2018-06-29T07:07:41.185Z,60.93
2018-06-29T07:10:23.062Z,64.77
2018-06-29T07:21:07.651Z,61.20
2018-06-29T07:26:22.841Z,59.70
2018-06-29T07:34:15.845Z,58.27
2018-06-29T07:39:27.913Z,52.03
2018-06-29T07:41:56.622Z,48.50
2018-06-29T07:44:35.614Z,52.03
2018-06-29T07:47:04.801Z,49.13
2018-06-29T07:49:43.658Z,80.23
2018-06-29T07:52:12.155Z,51.03
2018-06-29T07:57:14.727Z,46.97
2018-06-29T07:59:50.446Z,62.50
2018-06-29T08:05:00.124Z,44.67
2018-06-29T08:07:28.789Z,49.53
2018-06-29T08:16:06.855Z,50.00
2018-06-29T08:18:35.734Z,46.03
2018-06-29T08:21:16.908Z,46.17
2018-06-29T08:31:57.134Z,38.10
2018-06-29T08:34:27.621Z,41.00
2018-06-29T08:39:38.733Z,41.73
2018-06-29T08:42:15.926Z,40.53
2018-06-29T08:47:26.742Z,50.83
2018-06-29T08:49:55.127Z,42.73
2018-06-29T08:52:24.779Z,45.03
2018-06-29T08:54:53.147Z,50.30
2018-06-29T09:00:12.276Z,44.63
2018-06-29T09:11:07.953Z,36.97
2018-06-29T09:16:28.024Z,32.90
2018-06-29T09:21:54.644Z,36.10
2018-06-29T09:38:46.169Z,36.27
2018-06-29T10:13:42.973Z,58.77
2018-06-29T10:16:16.519Z,63.17
2018-06-29T10:30:53.970Z,51.03
2018-06-29T10:33:27.915Z,62.93
2018-06-29T10:50:38.520Z,48.93
2018-06-29T10:53:13.520Z,41.80
2018-06-29T10:55:53.192Z,53.13
2018-06-29T11:07:08.931Z,42.30
2018-06-29T11:15:18.908Z,58.67
2018-06-29T11:23:57.559Z,101.53
2018-06-29T11:26:35.498Z,48.33
2018-06-29T11:38:12.170Z,39.17
2018-06-29T11:43:50.768Z,43.47
2018-06-29T11:46:21.317Z,49.53
2018-06-29T11:48:49.959Z,47.37
2018-06-29T11:59:50.360Z,54.53
2018-06-29T12:02:18.838Z,48.17
2018-06-29T12:13:22.799Z,38.50
2018-06-29T12:18:41.045Z,39.77
2018-06-29T12:21:09.850Z,45.03
2018-06-29T12:23:39.595Z,37.07
2018-06-29T12:26:14.369Z,46.23
2018-06-29T12:31:40.998Z,55.90
2018-06-29T12:34:19.437Z,42.80
2018-06-29T12:42:41.547Z,42.00
2018-06-29T13:05:16.407Z,39.60
2018-06-29T13:16:59.056Z,43.73
2018-06-29T13:19:28.100Z,36.67
2018-06-29T13:22:10.793Z,33.80
2018-06-29T13:54:23.175Z,24.67
2018-06-29T14:11:01.035Z,32.33
2018-06-29T14:18:50.411Z,27.67
2018-06-29T14:21:20.222Z,25.53
2018-06-29T14:23:49.950Z,26.27
2018-06-29T14:28:59.737Z,33.33
2018-06-29T14:43:05.749Z,25.27
2018-06-29T14:45:41.261Z,27.37
2018-06-29T14:48:19.566Z,27.03
2018-06-29T15:02:18.315Z,29.73
2018-06-29T15:04:47.278Z,33.43
2018-06-29T15:16:20.352Z,20.80
2018-06-29T15:18:49.325Z,30.27
2018-06-29T15:29:46.365Z,19.97
2018-06-29T15:35:08.182Z,18.70
2018-06-29T15:37:37.405Z,17.37
2018-06-29T15:40:07.401Z,21.60
2018-06-29T15:48:47.468Z,22.70
2018-06-29T15:51:24.687Z,20.73
2018-06-29T15:53:55.696Z,27.73
2018-06-29T15:56:25.986Z,22.33
2018-06-29T15:58:54.517Z,22.50
2018-06-29T16:01:23.046Z,19.30
2018-06-29T16:06:42.756Z,19.80
2018-06-29T16:09:11.040Z,19.07
2018-06-29T16:11:39.417Z,21.03
2018-06-29T16:14:14.221Z,22.53
2018-06-29T16:16:43.210Z,18.93
2018-06-29T16:19:12.041Z,24.03
2018-06-29T16:21:40.924Z,20.23
2018-06-29T16:24:14.250Z,19.43
2018-06-29T16:26:42.550Z,23.37
2018-06-29T16:29:10.557Z,21.33
2018-06-29T16:31:44.022Z,20.23
2018-06-29T16:36:50.006Z,20.87
2018-06-29T16:39:18.214Z,22.60
2018-06-29T16:41:47.265Z,21.10
2018-06-29T16:44:15.531Z,21.83
2018-06-29T16:46:44.462Z,20.33
2018-06-29T16:49:16.019Z,25.17
2018-06-29T16:51:52.413Z,25.57
2018-06-29T16:54:20.444Z,21.77
2018-06-29T16:56:48.944Z,26.03
2018-06-29T16:59:17.348Z,24.80
2018-06-29T17:01:45.688Z,21.00
2018-06-29T17:04:14.233Z,21.80
2018-06-29T17:06:42.864Z,19.77
2018-06-29T17:09:11.180Z,32.77
2018-06-29T17:11:39.582Z,19.97
2018-06-29T17:14:08.521Z,23.53
2018-06-29T17:16:36.926Z,25.03
2018-06-29T17:19:05.321Z,22.67
2018-06-29T17:24:10.887Z,26.90
2018-06-29T17:26:41.752Z,29.97
2018-06-29T17:29:10.159Z,25.10
2018-06-29T17:31:38.831Z,27.20
2018-06-29T17:34:07.288Z,26.80
2018-06-29T17:39:15.012Z,23.63
2018-06-29T17:41:43.672Z,26.10
2018-06-29T17:44:12.317Z,24.83
2018-06-29T17:46:44.689Z,24.63
2018-06-29T17:49:13.454Z,26.93
2018-06-29T17:51:45.765Z,25.03
2018-06-29T17:54:14.429Z,24.83
2018-06-29T17:56:44.698Z,26.53
2018-06-29T17:59:13.122Z,25.73
2018-06-29T18:01:42.884Z,25.97
2018-06-29T18:04:10.967Z,28.60
2018-06-29T18:06:39.159Z,25.63
2018-06-29T18:09:07.723Z,28.00
2018-06-29T18:11:35.836Z,31.33
2018-06-29T18:14:04.498Z,30.60
2018-06-29T18:16:32.942Z,31.90
2018-06-29T18:19:01.327Z,26.27
2018-06-29T18:21:29.352Z,30.60
2018-06-29T18:23:57.560Z,27.60
2018-06-29T18:26:30.303Z,26.23
2018-06-29T18:28:58.832Z,26.20
2018-06-29T18:31:26.910Z,24.30
2018-06-29T18:33:55.929Z,25.93
2018-06-29T18:36:24.041Z,25.67
2018-06-29T18:38:55.728Z,26.27
2018-06-29T18:41:24.222Z,23.10
2018-06-29T18:43:53.814Z,23.57
2018-06-29T18:46:28.834Z,24.73
2018-06-29T18:51:38.952Z,26.07
2018-06-29T18:54:07.942Z,29.53
2018-06-29T18:56:36.261Z,42.50
2018-06-29T18:59:04.503Z,29.73
2018-06-29T19:01:37.213Z,30.63
2018-06-29T19:04:10.544Z,31.83
2018-06-29T19:06:39.035Z,33.00
2018-06-29T19:09:08.095Z,26.67
2018-06-29T19:11:36.264Z,32.60
2018-06-29T19:14:06.433Z,35.07
2018-06-29T19:16:37.319Z,25.90
2018-06-29T19:19:05.887Z,28.27
2018-06-29T19:21:38.210Z,33.40
2018-06-29T19:24:06.372Z,29.10
2018-06-29T19:26:34.814Z,28.13
2018-06-29T19:29:04.638Z,31.57
2018-06-29T19:31:33.037Z,32.73
2018-06-29T19:36:34.798Z,30.67
2018-06-29T19:39:03.108Z,30.17
2018-06-29T19:41:31.083Z,29.93
2018-06-29T19:43:59.275Z,31.13
2018-06-29T19:46:28.377Z,31.23
2018-06-29T19:48:56.350Z,27.00
2018-06-29T19:51:24.578Z,31.07
2018-06-29T19:53:53.016Z,29.33
2018-06-29T19:56:21.466Z,36.60
2018-06-29T19:58:50.038Z,26.20
2018-06-29T20:01:18.591Z,30.67
2018-06-29T20:03:47.335Z,34.00
2018-06-29T20:06:16.174Z,27.97
2018-06-29T20:08:45.685Z,31.30
2018-06-29T20:11:14.057Z,27.63
2018-06-29T20:13:43.228Z,30.80
2018-06-29T20:16:12.235Z,31.53
2018-06-29T20:18:40.579Z,25.50
2018-06-29T20:21:08.918Z,25.10
2018-06-29T20:23:37.013Z,30.30
2018-06-29T20:26:05.063Z,28.63
2018-06-29T20:28:33.177Z,38.60
2018-06-29T20:31:01.302Z,32.53
2018-06-29T20:33:29.286Z,32.20
2018-06-29T20:35:57.653Z,30.30
2018-06-29T20:38:25.992Z,30.07
2018-06-29T20:40:54.138Z,31.33
2018-06-29T20:43:22.937Z,30.33
2018-06-29T20:45:52.224Z,30.27
2018-06-29T20:48:21.054Z,36.80
2018-06-29T20:50:49.253Z,33.57
2018-06-29T20:53:17.694Z,36.33
2018-06-29T20:55:46.266Z,32.70
2018-06-29T20:58:21.595Z,29.47
2018-06-29T21:00:49.767Z,29.40
2018-06-29T21:03:20.495Z,35.70
2018-06-29T21:05:48.821Z,34.73
2018-06-29T21:08:17.386Z,34.20
2018-06-29T21:10:45.876Z,32.90
2018-06-29T21:13:14.792Z,33.97
2018-06-29T21:15:43.529Z,29.40
2018-06-29T21:18:12.231Z,36.30
2018-06-29T21:20:40.768Z,38.17
2018-06-29T21:23:08.718Z,39.33
2018-06-29T21:25:37.136Z,38.40
2018-06-29T21:28:05.718Z,35.30
2018-06-29T21:30:39.128Z,42.13
2018-06-29T21:33:08.307Z,33.97
2018-06-29T21:35:42.566Z,37.00
2018-06-29T21:38:11.039Z,33.10
2018-06-29T21:40:39.493Z,38.47
2018-06-29T21:43:07.882Z,37.40
2018-06-29T21:45:36.405Z,33.60
2018-06-29T21:48:05.131Z,31.63
2018-06-29T21:50:33.144Z,28.47
2018-06-29T21:53:01.181Z,31.00
2018-06-29T21:55:30.729Z,31.90
2018-06-29T21:57:59.152Z,29.50
2018-06-29T22:03:12.680Z,29.97
2018-06-29T22:05:44.955Z,33.17
2018-06-29T22:08:13.308Z,26.50
2018-06-29T22:10:41.672Z,32.03
2018-06-29T22:13:15.631Z,30.60
2018-06-29T22:15:43.937Z,33.00
2018-06-29T22:18:14.024Z,29.17
2018-06-29T22:20:42.932Z,29.40
2018-06-29T22:23:11.214Z,28.80
2018-06-29T22:25:39.519Z,33.77
2018-06-29T22:28:07.508Z,27.40
2018-06-29T22:30:35.894Z,34.50
2018-06-29T22:33:05.593Z,26.80
2018-06-29T22:35:33.667Z,28.27
2018-06-29T22:38:02.721Z,28.30
2018-06-29T22:40:30.733Z,27.43
2018-06-29T22:42:59.009Z,29.23
2018-06-29T22:45:28.504Z,28.60
2018-06-29T22:47:56.500Z,27.23
2018-06-29T22:50:24.890Z,32.60
2018-06-29T22:52:53.225Z,24.43
2018-06-29T22:55:21.953Z,32.00
2018-06-29T22:57:49.933Z,31.87
2018-06-29T23:00:18.295Z,26.10
2018-06-29T23:02:47.331Z,25.70
2018-06-29T23:05:15.928Z,34.47
2018-06-29T23:07:44.599Z,26.10
2018-06-29T23:10:12.749Z,27.97
2018-06-29T23:12:41.283Z,28.10
2018-06-29T23:15:09.995Z,25.60
2018-06-29T23:17:38.023Z,25.80
2018-06-29T23:20:06.240Z,24.33
2018-06-29T23:22:34.574Z,27.07
2018-06-29T23:25:02.776Z,28.40
2018-06-29T23:27:31.026Z,24.87
2018-06-29T23:29:58.981Z,27.40
2018-06-29T23:32:27.646Z,25.00
2018-06-29T23:34:55.616Z,25.13
2018-06-29T23:39:58.244Z,24.47
2018-06-29T23:42:26.237Z,28.20
2018-06-29T23:44:54.380Z,24.67
2018-06-29T23:47:22.501Z,27.13
2018-06-29T23:49:50.625Z,29.67
2018-06-29T23:52:19.285Z,32.23
2018-06-29T23:54:47.541Z,28.20
2018-06-29T23:57:15.798Z,23.60
2018-06-29T23:59:44.208Z,32.17
